LFPM 181930Z AUTO 33008KT 9999 FEW035/// BKN110/// ///CB 21/17 Q1011

Les avions qui composent notre flotte

Avion Robin DR400-100

Avion école

(freins aux palonniers)

F-GGJG
   * tarif promotionnel appliqué pendant la formation des élèves non brevetés